createdAt,value
2022-08-10T00:01:36.032Z,100.00
2022-08-10T00:04:03.325Z,100.00
2022-08-10T00:06:30.217Z,100.00
2022-08-10T00:08:57.176Z,100.00
2022-08-10T00:11:24.645Z,100.00
2022-08-10T00:13:52.146Z,100.00
2022-08-10T00:16:19.344Z,100.00
2022-08-10T00:18:46.126Z,100.00
2022-08-10T00:21:12.901Z,100.00
2022-08-10T00:23:39.824Z,100.00
2022-08-10T00:26:06.743Z,100.00
2022-08-10T00:28:34.177Z,100.00
2022-08-10T00:31:01.101Z,100.00
2022-08-10T00:33:28.066Z,100.00
2022-08-10T00:35:54.825Z,100.00
2022-08-10T00:38:22.472Z,100.00
2022-08-10T00:40:49.463Z,100.00
2022-08-10T00:43:16.934Z,100.00
2022-08-10T00:45:59.330Z,100.00
2022-08-10T00:48:30.516Z,100.00
2022-08-10T00:51:00.600Z,100.00
2022-08-10T00:53:28.542Z,100.00
2022-08-10T00:57:14.591Z,100.00
2022-08-10T00:58:43.951Z,100.00
2022-08-10T01:02:10.097Z,100.00
2022-08-10T01:04:36.175Z,100.00
2022-08-10T01:07:10.226Z,100.00
2022-08-10T01:09:59.710Z,100.00
2022-08-10T01:12:39.043Z,100.00
2022-08-10T01:15:19.413Z,100.00
2022-08-10T01:17:50.534Z,100.00
2022-08-10T01:20:30.079Z,100.00
2022-08-10T01:22:58.042Z,100.00
2022-08-10T01:26:12.372Z,100.00
2022-08-10T01:29:00.865Z,100.00
2022-08-10T01:31:32.974Z,100.00
2022-08-10T01:34:07.862Z,100.00
2022-08-10T01:36:46.409Z,100.00
2022-08-10T01:39:21.666Z,100.00
2022-08-10T01:41:53.528Z,100.00
2022-08-10T01:44:29.434Z,100.00
2022-08-10T01:47:22.360Z,100.00
2022-08-10T01:49:53.901Z,100.00
2022-08-10T01:52:23.978Z,100.00
2022-08-10T01:54:53.323Z,100.00
2022-08-10T01:57:25.800Z,100.00
2022-08-10T02:00:02.104Z,100.00
2022-08-10T02:02:34.131Z,100.00
2022-08-10T02:05:05.150Z,100.00
2022-08-10T02:07:33.465Z,100.00
2022-08-10T02:10:09.656Z,100.00
2022-08-10T02:12:39.755Z,100.00
2022-08-10T02:15:11.149Z,100.00
2022-08-10T02:17:59.093Z,100.00
2022-08-10T02:20:36.808Z,100.00
2022-08-10T02:23:08.859Z,100.00
2022-08-10T02:25:40.648Z,100.00
2022-08-10T02:28:29.992Z,100.00
2022-08-10T02:31:06.923Z,100.00
2022-08-10T02:33:38.936Z,100.00
2022-08-10T02:36:27.077Z,100.00
2022-08-10T02:39:00.018Z,100.00
2022-08-10T02:45:02.152Z,100.00
2022-08-10T02:45:23.851Z,100.00
2022-08-10T02:47:26.595Z,100.00
2022-08-10T02:50:08.332Z,100.00
2022-08-10T02:52:44.398Z,100.00
2022-08-10T02:55:19.865Z,100.00
2022-08-10T02:58:15.298Z,100.00
2022-08-10T03:00:48.611Z,100.00
2022-08-10T03:03:22.564Z,100.00
2022-08-10T03:05:53.568Z,100.00
2022-08-10T03:08:26.460Z,100.00
2022-08-10T03:10:56.569Z,100.00
2022-08-10T03:13:24.864Z,100.00
2022-08-10T03:15:52.036Z,100.00
2022-08-10T03:18:22.827Z,100.00
2022-08-10T03:20:51.288Z,100.00
2022-08-10T03:23:23.366Z,100.00
2022-08-10T03:25:55.249Z,100.00
2022-08-10T03:28:24.717Z,100.00
2022-08-10T03:30:52.995Z,100.00
2022-08-10T03:33:22.275Z,100.00
2022-08-10T03:36:43.365Z,100.00
2022-08-10T03:38:37.685Z,100.00
2022-08-10T03:41:08.603Z,100.00
2022-08-10T03:43:36.660Z,100.00
2022-08-10T03:46:08.037Z,100.00
2022-08-10T03:48:49.237Z,100.00
2022-08-10T03:51:18.800Z,100.00
2022-08-10T03:54:04.335Z,100.00
2022-08-10T03:56:38.791Z,100.00
2022-08-10T03:59:08.005Z,100.00
2022-08-10T04:02:44.075Z,100.00
2022-08-10T04:04:24.492Z,100.00
2022-08-10T04:06:54.651Z,100.00
2022-08-10T04:09:23.879Z,100.00
2022-08-10T04:11:50.648Z,100.00
2022-08-10T04:14:38.334Z,100.00
2022-08-10T04:17:04.266Z,100.00
2022-08-10T04:19:40.991Z,100.00
2022-08-10T04:22:14.796Z,100.00
2022-08-10T04:24:43.279Z,100.00
2022-08-10T04:27:10.313Z,100.00
2022-08-10T04:29:37.610Z,100.00
2022-08-10T04:32:06.546Z,100.00
2022-08-10T04:34:35.502Z,100.00
2022-08-10T04:37:09.047Z,100.00
2022-08-10T04:39:37.476Z,100.00
2022-08-10T04:42:06.144Z,100.00
2022-08-10T04:44:33.814Z,100.00
2022-08-10T04:47:00.600Z,100.00
2022-08-10T04:49:55.704Z,100.00
2022-08-10T04:52:14.944Z,100.00
2022-08-10T04:54:41.924Z,100.00
2022-08-10T04:57:09.054Z,100.00
2022-08-10T04:59:36.302Z,100.00
2022-08-10T05:02:21.590Z,100.00
2022-08-10T05:04:50.266Z,100.00
2022-08-10T05:07:18.665Z,100.00
2022-08-10T05:10:01.859Z,100.00
2022-08-10T05:12:35.698Z,100.00
2022-08-10T05:15:11.669Z,100.00
2022-08-10T05:17:40.216Z,100.00
2022-08-10T05:20:09.910Z,100.00
2022-08-10T05:22:39.416Z,100.00
2022-08-10T05:25:11.239Z,100.00
2022-08-10T05:27:39.322Z,100.00
2022-08-10T05:30:07.659Z,100.00
2022-08-10T05:32:56.411Z,100.00
2022-08-10T05:35:23.141Z,100.00
2022-08-10T05:38:09.349Z,100.00
2022-08-10T05:40:46.306Z,100.00
2022-08-10T05:43:20.078Z,100.00
2022-08-10T05:46:17.573Z,100.00
2022-08-10T05:48:55.363Z,100.00
2022-08-10T05:51:23.648Z,100.00
2022-08-10T05:54:01.432Z,100.00
2022-08-10T05:56:55.326Z,100.00
2022-08-10T06:00:09.071Z,100.00
2022-08-10T06:02:34.042Z,100.00
2022-08-10T06:04:58.606Z,100.00
2022-08-10T06:07:27.451Z,100.00
2022-08-10T06:09:59.317Z,100.00
2022-08-10T06:12:30.878Z,100.00
2022-08-10T06:15:05.732Z,100.00
2022-08-10T06:17:33.175Z,100.00
2022-08-10T06:20:01.221Z,100.00
2022-08-10T06:22:32.350Z,100.00
2022-08-10T06:27:49.343Z,100.00
2022-08-10T06:30:20.420Z,100.00
2022-08-10T06:32:53.582Z,100.00
2022-08-10T06:35:21.305Z,100.00
2022-08-10T06:37:51.850Z,100.00
2022-08-10T06:40:20.278Z,100.00
2022-08-10T06:42:50.037Z,100.00
2022-08-10T06:45:21.358Z,100.00
2022-08-10T06:47:51.043Z,100.00
2022-08-10T06:50:45.306Z,100.00
2022-08-10T06:53:18.374Z,100.00
2022-08-10T06:55:55.569Z,100.00
2022-08-10T06:58:29.394Z,100.00
2022-08-10T07:00:56.948Z,100.00
2022-08-10T07:03:30.716Z,100.00
2022-08-10T07:05:59.914Z,100.00
2022-08-10T07:08:31.492Z,100.00
2022-08-10T07:10:59.358Z,100.00
2022-08-10T07:14:17.315Z,100.00
2022-08-10T07:16:16.496Z,100.00
2022-08-10T07:18:44.946Z,100.00
2022-08-10T07:21:13.716Z,100.00
2022-08-10T07:23:54.942Z,100.00
2022-08-10T07:26:24.978Z,100.00
2022-08-10T07:28:52.746Z,100.00
2022-08-10T07:31:54.607Z,100.00
2022-08-10T07:34:09.401Z,100.00
2022-08-10T07:36:40.232Z,100.00
2022-08-10T07:39:08.956Z,100.00
2022-08-10T07:41:41.275Z,100.00
2022-08-10T07:44:11.362Z,100.00
2022-08-10T07:46:43.272Z,100.00
2022-08-10T07:49:20.510Z,100.00
2022-08-10T07:51:54.534Z,100.00
2022-08-10T07:54:25.292Z,100.00
2022-08-10T07:56:56.417Z,100.00
2022-08-10T07:59:28.521Z,100.00
2022-08-10T08:01:56.325Z,100.00
2022-08-10T08:04:24.885Z,100.00
2022-08-10T08:06:53.646Z,100.00
2022-08-10T08:09:22.077Z,100.00
2022-08-10T08:11:50.159Z,100.00
2022-08-10T08:14:19.111Z,100.00
2022-08-10T08:16:48.934Z,100.00
2022-08-10T08:19:37.959Z,100.00
2022-08-10T08:24:11.140Z,100.00
2022-08-10T08:24:56.948Z,100.00
2022-08-10T08:27:26.215Z,100.00
2022-08-10T08:29:53.776Z,100.00
2022-08-10T08:32:26.383Z,100.00
2022-08-10T08:34:59.688Z,100.00
2022-08-10T08:38:31.940Z,100.00
2022-08-10T08:40:24.512Z,100.00
2022-08-10T08:43:27.308Z,100.00
2022-08-10T08:46:18.290Z,100.00
2022-08-10T08:49:04.811Z,100.00
2022-08-10T08:52:09.715Z,100.00
2022-08-10T08:55:05.209Z,100.00
2022-08-10T08:58:20.453Z,100.00
2022-08-10T09:01:06.401Z,100.00
2022-08-10T09:03:58.034Z,100.00
2022-08-10T09:06:52.548Z,100.00
2022-08-10T09:09:38.508Z,100.00
2022-08-10T09:12:33.969Z,100.00
2022-08-10T09:15:09.570Z,100.00
2022-08-10T09:18:05.570Z,100.00
2022-08-10T09:20:49.340Z,100.00
2022-08-10T09:24:04.038Z,100.00
2022-08-10T09:26:22.874Z,100.00
2022-08-10T09:29:12.266Z,100.00
2022-08-10T09:36:13.657Z,100.00
2022-08-10T09:36:19.533Z,100.00
2022-08-10T09:38:04.200Z,100.00
2022-08-10T09:41:06.276Z,100.00
2022-08-10T09:43:43.779Z,100.00
2022-08-10T09:46:22.770Z,100.00
2022-08-10T09:49:09.520Z,100.00
2022-08-10T09:51:55.116Z,100.00
2022-08-10T09:54:57.302Z,100.00
2022-08-10T09:57:46.739Z,100.00
2022-08-10T10:00:20.606Z,100.00
2022-08-10T10:03:17.753Z,100.00
2022-08-10T10:06:09.915Z,100.00
2022-08-10T10:08:53.799Z,100.00
2022-08-10T10:12:09.717Z,100.00
2022-08-10T10:15:09.744Z,100.00
2022-08-10T10:18:02.798Z,100.00
2022-08-10T10:20:53.991Z,100.00
2022-08-10T10:23:55.178Z,100.00
2022-08-10T10:26:50.286Z,100.00
2022-08-10T10:29:56.414Z,100.00
2022-08-10T10:32:37.328Z,100.00
2022-08-10T10:35:23.549Z,100.00
2022-08-10T10:38:02.639Z,100.00
2022-08-10T10:40:52.808Z,100.00
2022-08-10T10:43:54.573Z,100.00
2022-08-10T10:46:48.311Z,100.00
2022-08-10T10:49:35.427Z,100.00
2022-08-10T10:52:14.861Z,100.00
2022-08-10T10:54:59.840Z,100.00
2022-08-10T10:58:09.015Z,95.38
2022-08-10T11:00:55.767Z,97.83
2022-08-10T11:03:41.102Z,99.47
2022-08-10T11:06:40.545Z,92.52
2022-08-10T11:10:04.877Z,99.81
2022-08-10T11:12:18.266Z,92.44
2022-08-10T11:15:09.360Z,90.88
2022-08-10T11:17:48.956Z,99.24
2022-08-10T11:20:54.211Z,78.68
2022-08-10T11:23:41.878Z,81.48
2022-08-10T11:26:35.328Z,79.38
2022-08-10T11:29:18.498Z,79.29
2022-08-10T11:31:55.537Z,85.44
2022-08-10T11:34:49.205Z,100.00
2022-08-10T11:38:31.195Z,100.00
2022-08-10T11:40:50.771Z,100.00
2022-08-10T11:43:22.634Z,100.00
2022-08-10T11:46:27.674Z,100.00
2022-08-10T11:49:13.770Z,100.00
2022-08-10T11:51:48.333Z,100.00
2022-08-10T11:54:37.215Z,100.00
2022-08-10T11:57:04.249Z,100.00
2022-08-10T11:59:57.888Z,100.00
2022-08-10T12:02:44.653Z,100.00
2022-08-10T12:05:48.214Z,100.00
2022-08-10T12:10:12.096Z,100.00
2022-08-10T12:11:05.636Z,100.00
2022-08-10T12:13:58.487Z,100.00
2022-08-10T12:16:35.022Z,100.00
2022-08-10T12:19:08.807Z,100.00
2022-08-10T12:21:42.868Z,100.00
2022-08-10T12:24:18.445Z,100.00
2022-08-10T12:27:19.997Z,100.00
2022-08-10T12:29:59.175Z,100.00
2022-08-10T12:32:35.596Z,100.00
2022-08-10T12:35:35.725Z,100.00
2022-08-10T12:38:15.000Z,100.00
2022-08-10T12:40:48.645Z,100.00
2022-08-10T12:44:05.051Z,95.83
2022-08-10T12:46:32.347Z,89.73
2022-08-10T12:49:20.141Z,100.00
2022-08-10T12:51:55.794Z,91.50
2022-08-10T12:54:32.546Z,89.68
2022-08-10T12:57:03.591Z,100.00
2022-08-10T12:59:32.064Z,100.00
2022-08-10T13:02:10.249Z,100.00
2022-08-10T13:04:40.511Z,100.00
2022-08-10T13:07:10.033Z,100.00
2022-08-10T13:09:56.542Z,94.41
2022-08-10T13:12:44.455Z,100.00
2022-08-10T13:15:47.999Z,97.70
2022-08-10T13:18:06.919Z,95.97
2022-08-10T13:20:52.177Z,100.00
2022-08-10T13:23:27.510Z,100.00
2022-08-10T13:25:58.206Z,100.00
2022-08-10T13:28:39.609Z,95.64
2022-08-10T13:31:16.794Z,85.81
2022-08-10T13:34:39.510Z,94.21
2022-08-10T13:36:47.621Z,71.95
2022-08-10T13:39:19.759Z,84.78
2022-08-10T13:41:49.250Z,70.49
2022-08-10T13:44:28.226Z,65.60
2022-08-10T13:46:56.413Z,78.91
2022-08-10T13:49:23.520Z,86.24
2022-08-10T13:51:56.970Z,79.55
2022-08-10T13:54:37.169Z,88.30
2022-08-10T13:57:05.198Z,90.69
2022-08-10T14:00:37.592Z,76.37
2022-08-10T14:02:25.720Z,99.10
2022-08-10T14:04:55.706Z,97.76
2022-08-10T14:07:24.121Z,100.00
2022-08-10T14:09:53.179Z,100.00
2022-08-10T14:12:33.386Z,99.67
2022-08-10T14:15:03.147Z,100.00
2022-08-10T14:17:30.525Z,100.00
2022-08-10T14:19:59.478Z,100.00
2022-08-10T14:22:33.901Z,97.06
2022-08-10T14:25:19.347Z,95.28
2022-08-10T14:28:01.929Z,100.00
2022-08-10T14:30:31.326Z,100.00
2022-08-10T14:33:04.043Z,100.00
2022-08-10T14:36:19.106Z,100.00
2022-08-10T14:38:26.672Z,100.00
2022-08-10T14:40:57.001Z,100.00
2022-08-10T14:43:32.966Z,100.00
2022-08-10T14:46:06.469Z,100.00
2022-08-10T14:48:39.913Z,100.00
2022-08-10T14:51:10.862Z,100.00
2022-08-10T14:53:39.992Z,99.91
2022-08-10T14:56:14.457Z,100.00
2022-08-10T14:59:05.426Z,100.00
2022-08-10T15:02:01.150Z,98.38
2022-08-10T15:04:26.592Z,100.00
2022-08-10T15:07:00.118Z,100.00
2022-08-10T15:10:01.168Z,92.83
2022-08-10T15:12:33.072Z,84.81
2022-08-10T15:15:01.411Z,76.57
2022-08-10T15:17:37.637Z,86.59
2022-08-10T15:20:16.722Z,88.04
2022-08-10T15:22:50.878Z,96.88
2022-08-10T15:25:24.646Z,93.94
2022-08-10T15:28:17.056Z,96.52
2022-08-10T15:30:47.447Z,100.00
2022-08-10T15:33:57.931Z,100.00
2022-08-10T15:36:58.720Z,100.00
2022-08-10T15:40:22.305Z,100.00
2022-08-10T15:42:23.899Z,100.00
2022-08-10T15:44:54.019Z,100.00
2022-08-10T15:47:45.307Z,100.00
2022-08-10T15:50:34.441Z,100.00
2022-08-10T15:53:28.079Z,100.00
2022-08-10T15:55:58.744Z,100.00
2022-08-10T15:58:39.317Z,100.00
2022-08-10T16:02:13.970Z,100.00
2022-08-10T16:04:49.691Z,100.00
2022-08-10T16:07:21.801Z,100.00
2022-08-10T16:10:24.577Z,100.00
2022-08-10T16:12:59.790Z,100.00
2022-08-10T16:15:30.259Z,100.00
2022-08-10T16:18:09.625Z,100.00
2022-08-10T16:20:54.830Z,100.00
2022-08-10T16:23:29.320Z,100.00
2022-08-10T16:26:04.666Z,100.00
2022-08-10T16:28:51.823Z,100.00
2022-08-10T16:31:22.385Z,100.00
2022-08-10T16:33:55.746Z,100.00
2022-08-10T16:36:32.110Z,100.00
2022-08-10T16:39:00.241Z,100.00
2022-08-10T16:42:05.241Z,100.00
2022-08-10T16:44:19.557Z,100.00
2022-08-10T16:46:47.503Z,100.00
2022-08-10T16:49:16.706Z,100.00
2022-08-10T16:51:49.271Z,100.00
2022-08-10T16:54:27.314Z,100.00
2022-08-10T16:57:01.307Z,100.00
2022-08-10T16:59:31.145Z,100.00
2022-08-10T17:02:00.372Z,100.00
2022-08-10T17:04:29.355Z,100.00
2022-08-10T17:06:58.290Z,100.00
2022-08-10T17:09:32.028Z,100.00
2022-08-10T17:12:04.277Z,100.00
2022-08-10T17:14:31.400Z,100.00
2022-08-10T17:17:00.564Z,100.00
2022-08-10T17:19:30.207Z,100.00
2022-08-10T17:21:59.644Z,100.00
2022-08-10T17:24:34.335Z,100.00
2022-08-10T17:28:24.394Z,100.00
2022-08-10T17:30:04.646Z,100.00
2022-08-10T17:32:44.807Z,100.00
2022-08-10T17:35:14.530Z,100.00
2022-08-10T17:37:48.555Z,100.00
2022-08-10T17:40:18.924Z,100.00
2022-08-10T17:42:50.444Z,100.00
2022-08-10T17:45:47.816Z,100.00
2022-08-10T17:48:09.696Z,100.00
2022-08-10T17:50:38.059Z,100.00
2022-08-10T17:53:08.307Z,100.00
2022-08-10T17:55:38.498Z,100.00
2022-08-10T17:58:13.655Z,100.00
2022-08-10T18:00:46.034Z,100.00
2022-08-10T18:03:25.055Z,100.00
2022-08-10T18:05:56.224Z,100.00
2022-08-10T18:08:32.057Z,100.00
2022-08-10T18:11:00.584Z,100.00
2022-08-10T18:13:55.155Z,100.00
2022-08-10T18:16:24.851Z,100.00
2022-08-10T18:18:58.354Z,100.00
2022-08-10T18:21:30.732Z,100.00
2022-08-10T18:24:07.707Z,100.00
2022-08-10T18:26:41.030Z,100.00
2022-08-10T18:29:14.014Z,100.00
2022-08-10T18:31:47.573Z,100.00
2022-08-10T18:34:19.802Z,100.00
2022-08-10T18:36:48.617Z,100.00
2022-08-10T18:39:21.893Z,100.00
2022-08-10T18:42:00.333Z,100.00
2022-08-10T18:44:41.064Z,100.00
2022-08-10T18:47:16.179Z,100.00
2022-08-10T18:49:59.375Z,100.00
2022-08-10T18:52:29.702Z,100.00
2022-08-10T18:55:14.398Z,100.00
2022-08-10T18:58:16.162Z,100.00
2022-08-10T19:01:04.764Z,100.00
2022-08-10T19:03:59.294Z,100.00
2022-08-10T19:06:55.597Z,100.00
2022-08-10T19:09:45.865Z,100.00
2022-08-10T19:12:31.638Z,100.00
2022-08-10T19:15:36.301Z,100.00
2022-08-10T19:18:31.207Z,100.00
2022-08-10T19:21:08.130Z,100.00
2022-08-10T19:23:43.651Z,100.00
2022-08-10T19:26:44.129Z,100.00
2022-08-10T19:30:11.165Z,100.00
2022-08-10T19:32:37.406Z,100.00
2022-08-10T19:35:11.046Z,100.00
2022-08-10T19:38:31.996Z,100.00
2022-08-10T19:41:12.801Z,100.00
2022-08-10T19:44:03.088Z,100.00
2022-08-10T19:47:11.373Z,100.00
2022-08-10T19:49:45.694Z,100.00
2022-08-10T19:52:27.208Z,100.00
2022-08-10T19:55:17.600Z,100.00
2022-08-10T19:57:49.669Z,100.00
2022-08-10T20:00:22.950Z,100.00
2022-08-10T20:03:03.116Z,100.00
2022-08-10T20:05:39.162Z,100.00
2022-08-10T20:08:13.659Z,100.00
2022-08-10T20:11:46.236Z,100.00
2022-08-10T20:14:22.497Z,100.00
2022-08-10T20:16:53.508Z,100.00
2022-08-10T20:19:53.460Z,100.00
2022-08-10T20:22:34.884Z,100.00
2022-08-10T20:25:06.057Z,100.00
2022-08-10T20:27:59.556Z,100.00
2022-08-10T20:30:32.506Z,100.00
2022-08-10T20:33:12.304Z,100.00
2022-08-10T20:35:53.289Z,100.00
2022-08-10T20:38:29.011Z,100.00
2022-08-10T20:41:33.891Z,100.00
2022-08-10T20:44:31.778Z,100.00
2022-08-10T20:47:36.929Z,100.00
2022-08-10T20:50:35.044Z,100.00
2022-08-10T20:53:14.996Z,100.00
2022-08-10T20:55:54.202Z,100.00
2022-08-10T20:58:58.448Z,100.00
2022-08-10T21:02:06.230Z,100.00
2022-08-10T21:04:33.466Z,100.00
2022-08-10T21:07:43.966Z,100.00
2022-08-10T21:10:16.316Z,100.00
2022-08-10T21:12:44.176Z,100.00
2022-08-10T21:15:55.653Z,100.00
2022-08-10T21:18:25.726Z,100.00
2022-08-10T21:21:01.510Z,100.00
2022-08-10T21:23:32.243Z,100.00
2022-08-10T21:26:13.508Z,100.00
2022-08-10T21:28:50.214Z,100.00
2022-08-10T21:31:38.797Z,100.00
2022-08-10T21:34:32.122Z,100.00
2022-08-10T21:37:08.024Z,100.00
2022-08-10T21:39:50.727Z,100.00
2022-08-10T21:42:51.206Z,100.00
2022-08-10T21:45:58.242Z,100.00
2022-08-10T21:48:57.815Z,100.00
2022-08-10T21:52:06.792Z,100.00
2022-08-10T21:55:02.180Z,100.00
2022-08-10T21:58:05.374Z,100.00
2022-08-10T22:00:55.822Z,100.00
2022-08-10T22:03:42.117Z,100.00
2022-08-10T22:06:31.055Z,100.00
2022-08-10T22:09:26.543Z,100.00
2022-08-10T22:12:24.906Z,100.00
2022-08-10T22:16:03.826Z,100.00
2022-08-10T22:18:58.741Z,100.00
2022-08-10T22:22:27.420Z,100.00
2022-08-10T22:25:29.358Z,100.00
2022-08-10T22:28:18.096Z,100.00
2022-08-10T22:31:30.955Z,100.00
2022-08-10T22:34:51.006Z,100.00
2022-08-10T22:37:52.616Z,100.00
2022-08-10T22:40:40.978Z,100.00
2022-08-10T22:43:35.562Z,100.00
2022-08-10T22:46:30.427Z,100.00
2022-08-10T22:49:00.107Z,100.00
2022-08-10T22:52:10.359Z,100.00
2022-08-10T22:55:21.236Z,100.00
2022-08-10T22:58:08.674Z,100.00
2022-08-10T23:00:37.239Z,100.00
2022-08-10T23:03:15.924Z,100.00
2022-08-10T23:05:57.586Z,100.00
2022-08-10T23:08:32.042Z,100.00
2022-08-10T23:11:08.495Z,100.00
2022-08-10T23:13:40.786Z,100.00
2022-08-10T23:16:36.944Z,100.00
2022-08-10T23:19:37.999Z,100.00
2022-08-10T23:22:13.806Z,100.00
2022-08-10T23:25:15.130Z,100.00
2022-08-10T23:27:46.733Z,100.00
2022-08-10T23:30:17.438Z,100.00
2022-08-10T23:32:51.289Z,100.00
2022-08-10T23:36:31.003Z,100.00
2022-08-10T23:38:12.393Z,100.00
2022-08-10T23:40:45.442Z,100.00
2022-08-10T23:43:18.889Z,100.00
2022-08-10T23:45:53.756Z,100.00
2022-08-10T23:48:29.584Z,100.00
2022-08-10T23:51:01.853Z,100.00
2022-08-10T23:53:41.325Z,100.00
2022-08-10T23:56:12.521Z,100.00
2022-08-10T23:58:44.725Z,100.00
